CheckWX is a tool to help pilots better visualize weather data.  It is not intended as a substitute for an official pre-flight weather briefing.

17:43:35 UTC

KORB METAR
Orr Regional Airport
Orr, Minnesota, USA
Current

31 mins ago

KORB 291713Z AUTO 30009KT 280V020 10SM BKN021 OVC027 12/06 A3010 RMK AO2
Observed
May-29 @ 17:13 UTC
Wind
  • 300° at 9 KTS
Visibility
Flight Rules
MVFR
Cloud Levels
  • Broken at 2,100' AGL
  • Overcast at 2,700' AGL
Temperature
12°C / 54°F
Dewpoint
C / 43°F
Humidity
67%
Altimeter
30.1" Hg
Pressure
1019.32 hPa
Previous

51 mins ago

KORB 291653Z AUTO 30009KT 10SM BKN021 OVC027 11/06 A3010 RMK AO2
Observed
May-29 @ 16:53 UTC
Wind
  • 300° at 9 KTS
Visibility
Flight Rules
MVFR
Cloud Levels
  • Broken at 2,100' AGL
  • Overcast at 2,700' AGL
Temperature
11°C / 52°F
Dewpoint
C / 43°F
Humidity
72%
Altimeter
30.1" Hg
Pressure
1019.32 hPa
Previous

1 hour ago

KORB 291634Z AUTO 30009KT 10SM OVC019 10/06 A3010 RMK AO2
Observed
May-29 @ 16:34 UTC
Wind
  • 300° at 9 KTS
Visibility
Flight Rules
MVFR
Cloud Levels
  • Overcast at 1,900' AGL
Temperature
10°C / 50°F
Dewpoint
C / 43°F
Humidity
76%
Altimeter
30.1" Hg
Pressure
1019.32 hPa